Rick Husband Amarillo International Airport
KAMA : now visible

Airfield :











YOU CAN JOIN US ON...

 
LOGIN :

Register | Disclaimer

   EN    FR    IT 

 









Legend :    VFR   Marginal VFR   IFR   Intensive IFR   Very Intensive IFR
Visi :
Ceiling :
>= 8 km
>= 3000ft
5 to 8 km
1000 to 3000 ft
1500m to 5 km
500 to 1000 ft
800 to 1500m
200 to 500 ft
< 800m
< 200 ft
Symbols :   Thunderstorms  Fog  Heavy snow  Heavy precipitations  Wind > 20 kt






- Airport Elevation : 3607 ft
- IATA code : AMA


KAMA - Rick Husband Amarillo International

CURRENT METAR :
  • 230122Z 09008KT 10SM OVC014 02/M01 A3003 RMK AO2 T00171011

EXPIRED METARs :
  • 230053Z 07007KT 9SM OVC016 02/M01 A3003 RMK AO2 SLP175 T00171011
  • 230037Z 06009KT 9SM BKN015 OVC041 02/M01 A3002 RMK AO2 T00171011
  • 230004Z 08008KT 10SM FEW018 SCT026 OVC044 02/M01 A3002 RMK AO2 T00171011
  • 222353Z 08007KT 10SM BKN018 BKN027 BKN048 02/M02 A3002 RMK AO2 SLP172 T00171017 10039 20017 58007
  • 222253Z 06009KT 10SM OVC019 03/M01 A3003 RMK AO2 SLP176 T00281006

TAF KAMA
Valid from the 23 at 00:00 until the 24 at 00:00 UTC


222346Z 2300/2324 VRB04KT P6SM SCT012 OVC020
FM230300 VRB04KT P6SM SCT002 OVC005
FM231500 28009KT P6SM SKC



MET'MAP, your aeronautical weather chart ! - Copyright ORBIFLY December 2007 - Disclaimer

ORBIFLY MET'MAP TEAM :

Programming & Development : Alexandra Zaïnal
Concept & Development : Baudouin d'Aumeries
Co-Development & Prog : Marc-Olivier Méhu
Technical & hardware support : Manuel Goepfert

Contact : metmap@orbifly.com




SOURCES & CREDITS :

   NOAA       Earth
Advisory